CXA8144 ZBAA-RJAA
Flight info
| Callsign | CXA8144 |
|---|---|
| Flight time | N/A |
| Altitude | 37100 |
| Route | MUGL6J/19 MUGLO W34 VAPGU W100 ORAVA W201 UNSEK A326 DONVO G597 AGAVO/N0455F371 Y644 EGOBA Y697 LANAT Y51 SAMON Y517 ESKAS Y303 ENTAK Y30 SWAMP |
| Aircraft | A321/M-SDE3FGHIRWY/LB1 |
Departure
| Time | N/A |
|---|---|
| Airport | Beijing Capital International Airport (ZBAA) |
Arrival
| Time | 2026-05-04 09:34 |
|---|---|
| Airport | Narita International Airport (RJAA) |
| Time | Latitude | Longitude | Altitude | Speed | Heading |
|---|---|---|---|---|---|
| 2026-05-04 08:48 | 36.77314 | 137.96655 | 36906 ft | 580 kts | 86° |
| 2026-05-04 08:49 | 36.77994 | 138.01652 | 36910 ft | 579 kts | 86° |
| 2026-05-04 08:50 | 36.82711 | 138.36125 | 36880 ft | 577 kts | 87° |
| 2026-05-04 08:51 | 36.84049 | 138.45926 | 36893 ft | 578 kts | 87° |
| 2026-05-04 08:51 | 36.85371 | 138.55835 | 36806 ft | 577 kts | 88° |
| 2026-05-04 08:52 | 36.86663 | 138.65726 | 36925 ft | 579 kts | 88° |
| 2026-05-04 08:52 | 36.87948 | 138.75651 | 36897 ft | 577 kts | 88° |
| 2026-05-04 08:54 | 36.93076 | 139.15247 | 36858 ft | 579 kts | 88° |
| 2026-05-04 08:55 | 36.94372 | 139.25178 | 36842 ft | 578 kts | 88° |
| 2026-05-04 08:55 | 36.95646 | 139.35028 | 36827 ft | 577 kts | 88° |
| 2026-05-04 09:01 | 37.08550 | 140.39152 | 36796 ft | 574 kts | 89° |
| 2026-05-04 09:01 | 37.09522 | 140.49031 | 36792 ft | 563 kts | 98° |
| 2026-05-04 09:01 | 37.09376 | 140.53862 | 36758 ft | 549 kts | 107° |
| 2026-05-04 09:02 | 37.08767 | 140.58448 | 36774 ft | 534 kts | 116° |
| 2026-05-04 09:02 | 37.07724 | 140.62845 | 36776 ft | 519 kts | 124° |
| 2026-05-04 09:02 | 37.06307 | 140.66919 | 36753 ft | 502 kts | 132° |
| 2026-05-04 09:02 | 37.04566 | 140.70624 | 36746 ft | 485 kts | 140° |
| 2026-05-04 09:03 | 37.02520 | 140.73812 | 36748 ft | 457 kts | 153° |
| 2026-05-04 09:03 | 37.00095 | 140.76126 | 36720 ft | 424 kts | 167° |
| 2026-05-04 09:03 | 36.97496 | 140.77584 | 36724 ft | 397 kts | 179° |
| 2026-05-04 09:03 | 36.94877 | 140.78280 | 36735 ft | 375 kts | 189° |
| 2026-05-04 09:04 | 36.92846 | 140.78354 | 36636 ft | 363 kts | 197° |
| 2026-05-04 09:05 | 36.90296 | 140.77857 | 36455 ft | 346 kts | 206° |
| 2026-05-04 09:05 | 36.88132 | 140.76876 | 36214 ft | 338 kts | 214° |
| 2026-05-04 09:05 | 36.86106 | 140.75448 | 35965 ft | 334 kts | 217° |
| 2026-05-04 09:05 | 36.84048 | 140.74069 | 35713 ft | 338 kts | 213° |
| 2026-05-04 09:06 | 36.81867 | 140.72903 | 35470 ft | 343 kts | 209° |
| 2026-05-04 09:07 | 36.79880 | 140.72063 | 35203 ft | 347 kts | 206° |
| 2026-05-04 09:08 | 36.78571 | 140.71577 | 35075 ft | 348 kts | 206° |
| 2026-05-04 09:08 | 36.76246 | 140.70698 | 34827 ft | 349 kts | 206° |
| 2026-05-04 09:08 | 36.73928 | 140.69803 | 34598 ft | 349 kts | 206° |
| 2026-05-04 09:09 | 36.73493 | 140.69634 | 34553 ft | 349 kts | 206° |
| 2026-05-04 09:10 | 36.71908 | 140.69020 | 34389 ft | 349 kts | 206° |
| 2026-05-04 09:10 | 36.69588 | 140.68118 | 34155 ft | 350 kts | 206° |
| 2026-05-04 09:10 | 36.67292 | 140.67231 | 33925 ft | 350 kts | 206° |
| 2026-05-04 09:10 | 36.64967 | 140.66333 | 33693 ft | 350 kts | 206° |
| 2026-05-04 09:11 | 36.62668 | 140.65446 | 33437 ft | 351 kts | 206° |
| 2026-05-04 09:11 | 36.60333 | 140.64546 | 33198 ft | 352 kts | 206° |
| 2026-05-04 09:11 | 36.57994 | 140.63649 | 32899 ft | 352 kts | 206° |
| 2026-05-04 09:11 | 36.55646 | 140.62749 | 32642 ft | 354 kts | 206° |
| 2026-05-04 09:12 | 36.53282 | 140.61845 | 32387 ft | 356 kts | 206° |
| 2026-05-04 09:12 | 36.50914 | 140.60943 | 32137 ft | 356 kts | 207° |
| 2026-05-04 09:14 | 36.32835 | 140.56024 | 24191 ft | 442 kts | 179° |
| 2026-05-04 09:14 | 36.29881 | 140.57517 | 23221 ft | 477 kts | 162° |
| 2026-05-04 09:14 | 36.27247 | 140.60181 | 22366 ft | 502 kts | 147° |
| 2026-05-04 09:14 | 36.24855 | 140.63319 | 21571 ft | 499 kts | 146° |
| 2026-05-04 09:15 | 36.22504 | 140.66458 | 20784 ft | 494 kts | 145° |
| 2026-05-04 09:15 | 36.20223 | 140.69529 | 20010 ft | 488 kts | 145° |
| 2026-05-04 09:15 | 36.17942 | 140.72598 | 19286 ft | 482 kts | 145° |
| 2026-05-04 09:15 | 36.15674 | 140.75630 | 18568 ft | 475 kts | 146° |
| 2026-05-04 09:17 | 35.94997 | 140.87416 | 11398 ft | 374 kts | 168° |
| 2026-05-04 09:18 | 35.92665 | 140.88463 | 11287 ft | 346 kts | 168° |
| 2026-05-04 09:18 | 35.90481 | 140.89444 | 11130 ft | 322 kts | 170° |
| 2026-05-04 09:18 | 35.88469 | 140.90347 | 10889 ft | 296 kts | 171° |
| 2026-05-04 09:18 | 35.86553 | 140.91186 | 10522 ft | 291 kts | 171° |
| 2026-05-04 09:19 | 35.84677 | 140.91992 | 10289 ft | 288 kts | 171° |
| 2026-05-04 09:19 | 35.82788 | 140.92801 | 10053 ft | 288 kts | 170° |
| 2026-05-04 09:19 | 35.80897 | 140.93615 | 9884 ft | 289 kts | 169° |
| 2026-05-04 09:19 | 35.79000 | 140.94438 | 9764 ft | 289 kts | 169° |
| 2026-05-04 09:20 | 35.77077 | 140.95013 | 9649 ft | 279 kts | 183° |
| 2026-05-04 09:20 | 35.75179 | 140.94905 | 9524 ft | 269 kts | 199° |
| 2026-05-04 09:20 | 35.73445 | 140.94186 | 9354 ft | 262 kts | 213° |
| 2026-05-04 09:20 | 35.71952 | 140.92993 | 9034 ft | 253 kts | 222° |
| 2026-05-04 09:21 | 35.70531 | 140.91719 | 8671 ft | 253 kts | 221° |
| 2026-05-04 09:21 | 35.69126 | 140.90470 | 8313 ft | 253 kts | 221° |
| 2026-05-04 09:21 | 35.67699 | 140.89206 | 7933 ft | 253 kts | 221° |
| 2026-05-04 09:21 | 35.66263 | 140.87934 | 7566 ft | 254 kts | 221° |
| 2026-05-04 09:22 | 35.64829 | 140.86665 | 7184 ft | 256 kts | 221° |
| 2026-05-04 09:22 | 35.63377 | 140.85382 | 6816 ft | 256 kts | 221° |
| 2026-05-04 09:22 | 35.61928 | 140.84100 | 6437 ft | 257 kts | 221° |
| 2026-05-04 09:22 | 35.60481 | 140.82821 | 6069 ft | 257 kts | 221° |
| 2026-05-04 09:23 | 35.59026 | 140.81540 | 5674 ft | 257 kts | 221° |
| 2026-05-04 09:23 | 35.57578 | 140.80267 | 5303 ft | 255 kts | 221° |
| 2026-05-04 09:23 | 35.56140 | 140.79002 | 4942 ft | 254 kts | 221° |
| 2026-05-04 09:23 | 35.54728 | 140.77759 | 4560 ft | 252 kts | 222° |
| 2026-05-04 09:25 | 35.47427 | 140.67023 | 3981 ft | 230 kts | 265° |
| 2026-05-04 09:25 | 35.47611 | 140.65087 | 3981 ft | 232 kts | 286° |
| 2026-05-04 09:26 | 35.48344 | 140.63335 | 3979 ft | 235 kts | 296° |
| 2026-05-04 09:26 | 35.49140 | 140.61654 | 3972 ft | 220 kts | 296° |
| 2026-05-04 09:26 | 35.49879 | 140.60087 | 3964 ft | 204 kts | 295° |
| 2026-05-04 09:26 | 35.50574 | 140.58602 | 3966 ft | 199 kts | 295° |
| 2026-05-04 09:27 | 35.51250 | 140.57149 | 3993 ft | 195 kts | 295° |
| 2026-05-04 09:27 | 35.51936 | 140.55679 | 3970 ft | 201 kts | 297° |
| 2026-05-04 09:27 | 35.52940 | 140.54455 | 3964 ft | 212 kts | 320° |
| 2026-05-04 09:27 | 35.54198 | 140.53550 | 3960 ft | 213 kts | 322° |
| 2026-05-04 09:28 | 35.55483 | 140.52640 | 3957 ft | 213 kts | 322° |
| 2026-05-04 09:28 | 35.56764 | 140.51723 | 3958 ft | 213 kts | 321° |
| 2026-05-04 09:28 | 35.58034 | 140.50813 | 3958 ft | 204 kts | 323° |
| 2026-05-04 09:28 | 35.59201 | 140.49980 | 3590 ft | 185 kts | 322° |
| 2026-05-04 09:29 | 35.60267 | 140.49215 | 3266 ft | 170 kts | 321° |
| 2026-05-04 09:29 | 35.61241 | 140.48514 | 3026 ft | 157 kts | 319° |
| 2026-05-04 09:29 | 35.62149 | 140.47860 | 2820 ft | 149 kts | 319° |
| 2026-05-04 09:29 | 35.63036 | 140.47219 | 2639 ft | 147 kts | 319° |
| 2026-05-04 09:30 | 35.63909 | 140.46591 | 2450 ft | 140 kts | 318° |
| 2026-05-04 09:30 | 35.64737 | 140.45996 | 2257 ft | 136 kts | 316° |
| 2026-05-04 09:30 | 35.65547 | 140.45412 | 2069 ft | 134 kts | 316° |
| 2026-05-04 09:30 | 35.66350 | 140.44831 | 1897 ft | 134 kts | 316° |
| 2026-05-04 09:31 | 35.67154 | 140.44252 | 1711 ft | 134 kts | 317° |
| 2026-05-04 09:31 | 35.67966 | 140.43666 | 1535 ft | 135 kts | 317° |
| 2026-05-04 09:31 | 35.68757 | 140.43097 | 1365 ft | 132 kts | 316° |
| 2026-05-04 09:31 | 35.69553 | 140.42523 | 1192 ft | 132 kts | 318° |
| 2026-05-04 09:32 | 35.70364 | 140.41930 | 1014 ft | 137 kts | 319° |
| 2026-05-04 09:32 | 35.71202 | 140.41314 | 830 ft | 142 kts | 320° |
| 2026-05-04 09:34 | 35.76106 | 140.37793 | 144 ft | 30 kts | 334° |
| 2026-05-04 09:34 | 35.76281 | 140.37732 | 143 ft | 24 kts | 354° |
| 2026-05-04 09:34 | 35.76398 | 140.37728 | 144 ft | 8 kts | 3° |
| 2026-05-04 09:34 | 35.76436 | 140.37760 | 144 ft | 7 kts | 63° |
| 2026-05-04 09:35 | 35.76433 | 140.37809 | 144 ft | 2 kts | 130° |
| 2026-05-04 09:35 | 35.76427 | 140.37815 | 144 ft | 1 kts | 143° |
| 2026-05-04 09:35 | 35.76424 | 140.37817 | 144 ft | 2 kts | 146° |
| 2026-05-04 09:35 | 35.76373 | 140.37856 | 144 ft | 13 kts | 149° |
| 2026-05-04 09:37 | 35.76052 | 140.38236 | 144 ft | 6 kts | 109° |
| 2026-05-04 09:37 | 35.76056 | 140.38289 | 144 ft | 6 kts | 82° |
| 2026-05-04 09:38 | 35.76042 | 140.38335 | 144 ft | 5 kts | 129° |
| 2026-05-04 09:38 | 35.76030 | 140.38368 | 144 ft | 4 kts | 89° |
| 2026-05-04 09:38 | 35.76042 | 140.38393 | 144 ft | 3 kts | 56° |
| 2026-05-04 09:38 | 35.76055 | 140.38421 | 144 ft | 4 kts | 59° |
| 2026-05-04 09:39 | 35.76065 | 140.38442 | 144 ft | 0 kts | 59° |
| 2026-05-04 09:39 | 35.76068 | 140.38446 | 144 ft | 1 kts | 59° |
| 2026-05-04 09:39 | 35.76071 | 140.38453 | 144 ft | 0 kts | 59° |